createdAt,value
2019-03-25T00:00:57.864Z,0.00
2019-03-25T00:01:57.854Z,0.00
2019-03-25T00:02:57.842Z,0.00
2019-03-25T00:03:57.831Z,0.00
2019-03-25T00:04:57.832Z,0.00
2019-03-25T00:05:57.810Z,0.00
2019-03-25T00:06:57.802Z,0.00
2019-03-25T00:07:57.788Z,0.00
2019-03-25T00:09:04.791Z,0.00
2019-03-25T00:09:58.781Z,0.00
2019-03-25T00:10:57.757Z,0.00
2019-03-25T00:11:57.747Z,0.00
2019-03-25T00:12:57.789Z,0.00
2019-03-25T00:13:57.724Z,0.00
2019-03-25T00:14:57.714Z,0.00
2019-03-25T00:15:57.714Z,0.00
2019-03-25T00:16:57.693Z,0.00
2019-03-25T00:17:57.682Z,0.00
2019-03-25T00:18:57.674Z,0.00
2019-03-25T00:19:57.660Z,0.00
2019-03-25T00:20:57.651Z,0.00
2019-03-25T00:21:57.650Z,0.00
2019-03-25T00:22:57.628Z,0.00
2019-03-25T00:23:57.618Z,0.00
2019-03-25T00:24:57.606Z,0.00
2019-03-25T00:25:57.595Z,0.00
2019-03-25T00:26:57.585Z,0.00
2019-03-25T00:27:57.588Z,0.00
2019-03-25T00:28:57.565Z,0.00
2019-03-25T00:29:57.553Z,0.00
2019-03-25T00:30:57.543Z,0.00
2019-03-25T00:31:57.536Z,0.00
2019-03-25T00:32:57.521Z,0.00
2019-03-25T00:33:57.534Z,0.00
2019-03-25T00:34:57.555Z,0.00
2019-03-25T00:35:57.491Z,0.00
2019-03-25T00:36:57.480Z,0.00
2019-03-25T00:37:57.469Z,0.00
2019-03-25T00:38:57.461Z,0.00
2019-03-25T00:39:57.461Z,0.00
2019-03-25T00:40:57.437Z,0.00
2019-03-25T00:41:57.426Z,0.00
2019-03-25T00:42:57.417Z,0.00
2019-03-25T00:43:57.406Z,0.00
2019-03-25T00:44:57.395Z,0.00
2019-03-25T00:45:57.401Z,0.00
2019-03-25T00:46:57.374Z,0.00
2019-03-25T00:47:57.363Z,0.00
2019-03-25T00:48:57.353Z,0.00
2019-03-25T00:49:57.343Z,0.00
2019-03-25T00:50:57.333Z,0.00
2019-03-25T00:51:57.333Z,0.00
2019-03-25T00:52:57.311Z,0.00
2019-03-25T00:53:57.300Z,0.00
2019-03-25T00:54:57.290Z,0.00
2019-03-25T00:55:57.281Z,0.00
2019-03-25T00:56:57.269Z,0.00
2019-03-25T00:57:57.269Z,0.00
2019-03-25T00:58:57.251Z,0.00
2019-03-25T00:59:57.238Z,0.00
2019-03-25T01:00:57.227Z,0.00
2019-03-25T01:01:57.216Z,0.00
2019-03-25T01:02:57.206Z,0.00
2019-03-25T01:03:57.205Z,0.00
2019-03-25T01:04:57.185Z,0.00
2019-03-25T01:05:57.174Z,0.00
2019-03-25T01:06:57.164Z,0.00
2019-03-25T01:07:57.153Z,0.00
2019-03-25T01:08:57.142Z,0.00
2019-03-25T01:09:57.145Z,0.00
2019-03-25T01:10:57.121Z,0.00
2019-03-25T01:11:57.111Z,0.00
2019-03-25T01:12:57.102Z,0.00
2019-03-25T01:13:57.089Z,0.00
2019-03-25T01:14:57.078Z,0.00
2019-03-25T01:15:57.080Z,0.00
2019-03-25T01:16:57.058Z,0.00
2019-03-25T01:17:57.047Z,0.00
2019-03-25T01:18:57.037Z,0.00
2019-03-25T01:19:57.027Z,0.00
2019-03-25T01:20:57.023Z,0.00
2019-03-25T01:21:57.016Z,0.00
2019-03-25T01:22:56.996Z,0.00
2019-03-25T01:23:56.984Z,0.00
2019-03-25T01:25:01.924Z,0.00
2019-03-25T01:25:57.961Z,0.00
2019-03-25T01:26:56.952Z,0.00
2019-03-25T01:27:56.954Z,0.00
2019-03-25T01:28:56.930Z,0.00
2019-03-25T01:29:56.920Z,0.00
2019-03-25T01:30:56.911Z,0.00
2019-03-25T01:31:56.897Z,0.00
2019-03-25T01:32:56.887Z,0.00
2019-03-25T01:33:56.893Z,0.00
2019-03-25T01:34:56.865Z,0.00
2019-03-25T01:35:56.855Z,0.00
2019-03-25T01:36:56.844Z,0.00
2019-03-25T01:37:56.834Z,0.00
2019-03-25T01:38:56.824Z,0.00
2019-03-25T01:39:56.835Z,0.00
2019-03-25T01:40:56.801Z,0.00
2019-03-25T01:41:56.790Z,0.00
2019-03-25T01:42:56.780Z,0.00
2019-03-25T01:43:56.769Z,0.00
2019-03-25T01:44:56.759Z,0.00
2019-03-25T01:45:56.759Z,0.00
2019-03-25T01:46:56.737Z,0.00
2019-03-25T01:47:56.726Z,0.00
2019-03-25T01:48:56.715Z,0.00
2019-03-25T01:49:56.705Z,0.00
2019-03-25T01:50:56.695Z,0.00
2019-03-25T01:51:56.705Z,0.00
2019-03-25T01:52:56.673Z,0.00
2019-03-25T01:53:56.662Z,0.00
2019-03-25T01:54:56.651Z,0.00
2019-03-25T01:55:56.641Z,0.00
2019-03-25T01:56:56.631Z,0.00
2019-03-25T01:57:56.630Z,0.00
2019-03-25T01:58:56.613Z,0.00
2019-03-25T01:59:56.599Z,0.00
2019-03-25T02:00:56.588Z,0.00
2019-03-25T02:01:56.577Z,0.00
2019-03-25T02:02:56.569Z,0.00
2019-03-25T02:03:56.571Z,0.00
2019-03-25T02:04:56.546Z,0.00
2019-03-25T02:05:56.539Z,0.00
2019-03-25T02:06:56.525Z,0.00
2019-03-25T02:07:56.514Z,0.00
2019-03-25T02:08:56.512Z,0.00
2019-03-25T02:09:56.503Z,0.00
2019-03-25T02:10:56.483Z,0.00
2019-03-25T02:11:56.475Z,0.00
2019-03-25T02:12:56.462Z,0.00
2019-03-25T02:13:56.451Z,0.00
2019-03-25T02:14:56.440Z,0.00
2019-03-25T02:15:56.441Z,0.00
2019-03-25T02:16:56.420Z,0.00
2019-03-25T02:17:56.409Z,0.00
2019-03-25T02:18:56.399Z,0.00
2019-03-25T02:19:56.389Z,0.00
2019-03-25T02:20:56.378Z,0.00
2019-03-25T02:21:56.378Z,0.00
2019-03-25T02:22:56.518Z,0.00
2019-03-25T02:23:56.346Z,0.00
2019-03-25T02:24:56.338Z,0.00
2019-03-25T02:25:56.324Z,0.00
2019-03-25T02:26:56.315Z,0.00
2019-03-25T02:27:56.315Z,0.00
2019-03-25T02:28:56.293Z,0.00
2019-03-25T02:29:56.282Z,0.00
2019-03-25T02:30:56.273Z,0.00
2019-03-25T02:31:56.262Z,0.00
2019-03-25T02:32:56.252Z,0.00
2019-03-25T02:33:56.253Z,0.00
2019-03-25T02:34:56.232Z,0.00
2019-03-25T02:35:56.220Z,0.00
2019-03-25T02:36:56.209Z,0.00
2019-03-25T02:37:56.201Z,0.00
2019-03-25T02:38:56.193Z,0.00
2019-03-25T02:39:56.188Z,0.00
2019-03-25T02:40:56.168Z,0.00
2019-03-25T02:41:56.156Z,0.00
2019-03-25T02:42:56.147Z,0.00
2019-03-25T02:43:56.135Z,0.00
2019-03-25T02:44:56.126Z,0.00
2019-03-25T02:45:56.127Z,0.00
2019-03-25T02:46:56.104Z,0.00
2019-03-25T02:47:56.094Z,0.00
2019-03-25T02:48:56.085Z,0.00
2019-03-25T02:49:56.072Z,0.00
2019-03-25T02:50:56.061Z,0.00
2019-03-25T02:51:56.060Z,0.00
2019-03-25T02:52:56.040Z,0.00
2019-03-25T02:53:56.029Z,0.00
2019-03-25T02:54:56.018Z,0.00
2019-03-25T02:55:56.008Z,0.00
2019-03-25T02:56:55.998Z,0.00
2019-03-25T02:57:56.001Z,0.00
2019-03-25T02:58:55.974Z,0.00
2019-03-25T02:59:55.968Z,0.00
2019-03-25T03:00:55.955Z,0.00
2019-03-25T03:01:55.944Z,0.00
2019-03-25T03:02:55.936Z,0.00
2019-03-25T03:03:55.948Z,0.00
2019-03-25T03:04:55.911Z,0.00
2019-03-25T03:05:55.899Z,0.00
2019-03-25T03:06:55.889Z,0.00
2019-03-25T03:07:55.878Z,0.00
2019-03-25T03:08:55.869Z,0.00
2019-03-25T03:09:55.868Z,0.00
2019-03-25T03:10:55.848Z,0.00
2019-03-25T03:11:55.833Z,0.00
2019-03-25T03:12:55.824Z,0.00
2019-03-25T03:13:55.814Z,0.00
2019-03-25T03:14:55.822Z,0.00
2019-03-25T03:15:55.805Z,0.00
2019-03-25T03:16:55.785Z,0.00
2019-03-25T03:17:55.776Z,0.00
2019-03-25T03:18:55.784Z,0.00
2019-03-25T03:19:55.752Z,0.00
2019-03-25T03:20:55.739Z,0.00
2019-03-25T03:21:55.742Z,0.00
2019-03-25T03:22:55.735Z,0.00
2019-03-25T03:23:55.707Z,0.00
2019-03-25T03:24:55.697Z,0.00
2019-03-25T03:25:58.060Z,0.00
2019-03-25T03:26:55.678Z,0.00
2019-03-25T03:27:55.676Z,0.00
2019-03-25T03:28:55.655Z,0.00
2019-03-25T03:29:55.643Z,0.00
2019-03-25T03:30:55.644Z,0.00
2019-03-25T03:31:55.632Z,0.00
2019-03-25T03:32:55.652Z,0.00
2019-03-25T03:33:55.668Z,0.00
2019-03-25T03:34:55.617Z,0.00
2019-03-25T03:35:55.580Z,0.00
2019-03-25T03:36:55.575Z,0.00
2019-03-25T03:37:55.576Z,0.00
2019-03-25T03:38:55.550Z,0.00
2019-03-25T03:39:55.554Z,0.00
2019-03-25T03:40:55.529Z,0.00
2019-03-25T03:41:55.517Z,0.00
2019-03-25T03:42:55.505Z,0.00
2019-03-25T03:43:55.493Z,0.00
2019-03-25T03:44:55.486Z,0.00
2019-03-25T03:45:55.498Z,0.00
2019-03-25T03:46:55.461Z,0.00
2019-03-25T03:47:55.450Z,0.00
2019-03-25T03:48:55.439Z,0.00
2019-03-25T03:49:55.429Z,0.00
2019-03-25T03:50:55.418Z,0.00
2019-03-25T03:51:55.421Z,0.00
2019-03-25T03:52:55.399Z,0.00
2019-03-25T03:53:55.387Z,0.00
2019-03-25T03:54:55.376Z,0.00
2019-03-25T03:55:55.365Z,0.00
2019-03-25T03:56:55.363Z,0.00
2019-03-25T03:57:55.356Z,0.00
2019-03-25T03:58:55.334Z,0.00
2019-03-25T03:59:55.339Z,0.00
2019-03-25T04:00:55.320Z,0.00
2019-03-25T04:01:55.306Z,0.00
2019-03-25T04:02:55.296Z,0.00
2019-03-25T04:03:55.306Z,0.00
2019-03-25T04:04:55.281Z,0.00
2019-03-25T04:05:55.261Z,0.00
2019-03-25T04:06:55.250Z,0.00
2019-03-25T04:07:55.239Z,0.00
2019-03-25T04:08:55.228Z,0.00
2019-03-25T04:09:55.228Z,0.00
2019-03-25T04:10:55.207Z,0.00
2019-03-25T04:11:55.244Z,0.00
2019-03-25T04:12:55.189Z,0.00
2019-03-25T04:13:55.178Z,0.00
2019-03-25T04:14:55.166Z,0.00
2019-03-25T04:15:55.177Z,0.00
2019-03-25T04:16:55.145Z,0.00
2019-03-25T04:17:55.133Z,0.00
2019-03-25T04:18:55.123Z,0.00
2019-03-25T04:19:55.115Z,0.00
2019-03-25T04:20:55.101Z,0.00
2019-03-25T04:21:55.103Z,0.00
2019-03-25T04:22:55.080Z,0.00
2019-03-25T04:23:55.074Z,0.00
2019-03-25T04:24:55.059Z,0.00
2019-03-25T04:25:55.067Z,0.00
2019-03-25T04:26:55.038Z,0.00
2019-03-25T04:27:55.058Z,0.00
2019-03-25T04:28:55.016Z,0.00
2019-03-25T04:29:55.006Z,0.00
2019-03-25T04:30:54.994Z,0.00
2019-03-25T04:31:54.997Z,0.00
2019-03-25T04:32:54.971Z,0.00
2019-03-25T04:33:54.972Z,0.00
2019-03-25T04:34:54.952Z,0.00
2019-03-25T04:35:54.948Z,0.00
2019-03-25T04:36:54.929Z,0.00
2019-03-25T04:37:56.496Z,0.00
2019-03-25T04:38:54.907Z,0.00
2019-03-25T04:39:54.907Z,0.00
2019-03-25T04:40:54.886Z,0.00
2019-03-25T04:41:54.875Z,0.00
2019-03-25T04:42:54.867Z,0.00
2019-03-25T04:43:54.855Z,0.00
2019-03-25T04:44:54.844Z,0.00
2019-03-25T04:45:54.844Z,0.00
2019-03-25T04:46:54.821Z,0.00
2019-03-25T04:47:54.813Z,0.00
2019-03-25T04:48:54.799Z,0.00
2019-03-25T04:49:54.789Z,0.00
2019-03-25T04:50:54.777Z,0.00
2019-03-25T04:51:54.786Z,0.00
2019-03-25T04:52:54.756Z,0.00
2019-03-25T04:53:54.746Z,0.00
2019-03-25T04:54:54.736Z,0.00
2019-03-25T04:55:54.729Z,0.00
2019-03-25T04:56:54.718Z,0.00
2019-03-25T04:57:54.720Z,0.00
2019-03-25T04:58:54.695Z,0.00
2019-03-25T04:59:54.682Z,0.00
2019-03-25T05:00:54.672Z,0.00
2019-03-25T05:01:54.664Z,0.00
2019-03-25T05:02:54.651Z,0.00
2019-03-25T05:03:54.659Z,0.00
2019-03-25T05:04:54.632Z,0.00
2019-03-25T05:05:54.619Z,0.00
2019-03-25T05:06:54.627Z,0.00
2019-03-25T05:07:54.599Z,0.00
2019-03-25T05:08:54.588Z,0.00
2019-03-25T05:09:54.588Z,0.00
2019-03-25T05:10:54.566Z,0.00
2019-03-25T05:11:54.555Z,0.00
2019-03-25T05:12:54.547Z,0.00
2019-03-25T05:13:54.536Z,5.62
2019-03-25T05:14:54.524Z,5.62
2019-03-25T05:15:54.523Z,5.62
2019-03-25T05:16:54.503Z,5.62
2019-03-25T05:17:54.492Z,5.62
2019-03-25T05:18:54.482Z,5.62
2019-03-25T05:19:54.473Z,5.62
2019-03-25T05:20:54.465Z,5.62
2019-03-25T05:21:54.461Z,11.25
2019-03-25T05:22:54.439Z,11.25
2019-03-25T05:23:54.429Z,11.25
2019-03-25T05:24:54.418Z,16.88
2019-03-25T05:25:54.425Z,16.88
2019-03-25T05:26:54.397Z,22.50
2019-03-25T05:27:54.403Z,22.50
2019-03-25T05:28:54.378Z,22.50
2019-03-25T05:29:54.415Z,16.88
2019-03-25T05:30:54.361Z,16.88
2019-03-25T05:31:54.347Z,16.88
2019-03-25T05:32:54.334Z,16.88
2019-03-25T05:33:54.337Z,16.88
2019-03-25T05:34:54.362Z,16.88
2019-03-25T05:35:54.303Z,16.88
2019-03-25T05:36:54.293Z,22.50
2019-03-25T05:37:54.283Z,22.50
2019-03-25T05:38:54.272Z,28.12
2019-03-25T05:39:54.272Z,33.75
2019-03-25T05:40:54.252Z,33.75
2019-03-25T05:41:54.240Z,45.00
2019-03-25T05:42:54.233Z,56.25
2019-03-25T05:43:54.225Z,61.88
2019-03-25T05:44:54.210Z,61.88
2019-03-25T05:45:54.212Z,61.88
2019-03-25T05:46:54.188Z,67.50
2019-03-25T05:47:54.178Z,73.12
2019-03-25T05:48:54.169Z,78.75
2019-03-25T05:49:54.157Z,84.38
2019-03-25T05:50:54.147Z,90.00
2019-03-25T05:51:54.147Z,101.25
2019-03-25T05:52:54.126Z,106.88
2019-03-25T05:53:54.123Z,106.88
2019-03-25T05:54:54.106Z,112.50
2019-03-25T05:55:54.097Z,135.00
2019-03-25T05:57:02.329Z,129.38
2019-03-25T05:57:55.091Z,140.62
2019-03-25T05:58:54.063Z,135.00
2019-03-25T05:59:54.052Z,123.75
2019-03-25T06:00:54.093Z,112.50
2019-03-25T06:01:54.035Z,101.25
2019-03-25T06:02:54.020Z,84.38
2019-03-25T06:03:54.019Z,73.12
2019-03-25T06:04:54.002Z,73.12
2019-03-25T06:05:53.989Z,67.50
2019-03-25T06:06:53.976Z,56.25
2019-03-25T06:07:53.967Z,56.25
2019-03-25T06:08:53.954Z,61.88
2019-03-25T06:09:53.957Z,78.75
2019-03-25T06:10:53.932Z,90.00
2019-03-25T06:11:53.922Z,95.62
2019-03-25T06:12:53.911Z,118.12
2019-03-25T06:13:53.900Z,151.88
2019-03-25T06:14:53.889Z,208.12
2019-03-25T06:15:53.887Z,185.62
2019-03-25T06:16:53.866Z,191.25
2019-03-25T06:17:53.855Z,247.50
2019-03-25T06:18:53.845Z,258.75
2019-03-25T06:19:53.833Z,253.12
2019-03-25T06:20:53.827Z,286.88
2019-03-25T06:21:53.822Z,315.00
2019-03-25T06:22:53.803Z,253.12
2019-03-25T06:23:53.790Z,303.75
2019-03-25T06:24:53.781Z,326.25
2019-03-25T06:25:53.775Z,343.12
2019-03-25T06:26:53.759Z,371.25
2019-03-25T06:27:53.759Z,388.12
2019-03-25T06:28:53.741Z,405.00
2019-03-25T06:29:53.727Z,438.75
2019-03-25T06:30:53.721Z,264.38
2019-03-25T06:31:53.705Z,264.38
2019-03-25T06:32:53.694Z,478.12
2019-03-25T06:33:53.693Z,596.25
2019-03-25T06:34:53.672Z,376.88
2019-03-25T06:35:53.663Z,196.88
2019-03-25T06:36:53.656Z,151.88
2019-03-25T06:37:53.642Z,135.00
2019-03-25T06:38:53.630Z,84.38
2019-03-25T06:39:53.631Z,50.62
2019-03-25T06:40:53.617Z,39.38
2019-03-25T06:41:53.597Z,28.12
2019-03-25T06:42:53.587Z,22.50
2019-03-25T06:43:53.576Z,22.50
2019-03-25T06:44:53.570Z,16.88
2019-03-25T06:45:53.613Z,22.50
2019-03-25T06:46:53.543Z,39.38
2019-03-25T06:47:53.533Z,61.88
2019-03-25T06:48:53.522Z,78.75
2019-03-25T06:49:53.511Z,90.00
2019-03-25T06:50:53.501Z,101.25
2019-03-25T06:51:53.501Z,106.88
2019-03-25T06:52:53.479Z,106.88
2019-03-25T06:53:53.468Z,112.50
2019-03-25T06:54:53.458Z,118.12
2019-03-25T06:55:53.446Z,118.12
2019-03-25T06:56:53.436Z,118.12
2019-03-25T06:57:53.438Z,106.88
2019-03-25T06:58:53.416Z,95.62
2019-03-25T06:59:53.404Z,95.62
2019-03-25T07:00:53.394Z,118.12
2019-03-25T07:01:53.383Z,146.25
2019-03-25T07:02:53.372Z,112.50
2019-03-25T07:03:53.380Z,123.75
2019-03-25T07:04:53.358Z,185.62
2019-03-25T07:05:53.340Z,241.88
2019-03-25T07:06:53.328Z,286.88
2019-03-25T07:07:53.318Z,365.62
2019-03-25T07:08:53.307Z,663.75
2019-03-25T07:09:53.306Z,680.62
2019-03-25T07:10:53.285Z,478.12
2019-03-25T07:11:53.274Z,450.00
2019-03-25T07:12:53.263Z,742.50
2019-03-25T07:13:53.252Z,765.00
2019-03-25T07:14:53.258Z,478.12
2019-03-25T07:15:53.244Z,309.38
2019-03-25T07:16:53.223Z,151.88
2019-03-25T07:17:53.210Z,90.00
2019-03-25T07:18:53.199Z,50.62
2019-03-25T07:19:53.190Z,39.38
2019-03-25T07:20:53.178Z,33.75
2019-03-25T07:21:53.179Z,33.75
2019-03-25T07:22:53.157Z,50.62
2019-03-25T07:23:53.147Z,50.62
2019-03-25T07:24:53.135Z,39.38
2019-03-25T07:25:53.127Z,39.38
2019-03-25T07:26:55.509Z,45.00
2019-03-25T07:27:53.115Z,56.25
2019-03-25T07:28:53.094Z,67.50
2019-03-25T07:29:53.084Z,84.38
2019-03-25T07:30:53.071Z,101.25
2019-03-25T07:31:53.062Z,118.12
2019-03-25T07:32:53.051Z,101.25
2019-03-25T07:33:53.052Z,129.38
2019-03-25T07:34:53.031Z,112.50
2019-03-25T07:35:53.018Z,106.88
2019-03-25T07:36:53.008Z,135.00
2019-03-25T07:37:52.999Z,146.25
2019-03-25T07:38:52.986Z,174.38
2019-03-25T07:39:52.986Z,180.00
2019-03-25T07:40:52.964Z,298.12
2019-03-25T07:41:52.953Z,219.38
2019-03-25T07:42:52.943Z,241.88
2019-03-25T07:43:52.932Z,281.25
2019-03-25T07:44:52.924Z,292.50
2019-03-25T07:45:52.922Z,421.88
2019-03-25T07:46:52.900Z,922.50
2019-03-25T07:47:52.889Z,1023.75
2019-03-25T07:48:52.879Z,871.88
2019-03-25T07:49:52.869Z,331.88
2019-03-25T07:50:52.857Z,354.38
2019-03-25T07:51:52.857Z,928.12
2019-03-25T07:52:52.835Z,736.88
2019-03-25T07:53:52.846Z,365.62
2019-03-25T07:54:52.815Z,562.50
2019-03-25T07:55:52.805Z,354.38
2019-03-25T07:56:52.792Z,444.38
2019-03-25T07:57:52.806Z,461.25
2019-03-25T07:58:52.770Z,393.75
2019-03-25T07:59:52.764Z,286.88
2019-03-25T08:00:52.759Z,1006.88
2019-03-25T08:01:52.767Z,438.75
2019-03-25T08:02:52.732Z,759.38
2019-03-25T08:03:52.754Z,855.00
2019-03-25T08:04:52.726Z,1428.75
2019-03-25T08:05:52.696Z,343.12
2019-03-25T08:06:52.696Z,1395.00
2019-03-25T08:07:52.675Z,1546.88
2019-03-25T08:09:03.137Z,838.12
2019-03-25T08:09:53.670Z,720.00
2019-03-25T08:10:52.644Z,855.00
2019-03-25T08:11:52.639Z,2081.25
2019-03-25T08:12:52.623Z,2463.75
2019-03-25T08:13:52.633Z,551.25
2019-03-25T08:14:52.607Z,860.62
2019-03-25T08:15:52.614Z,534.38
2019-03-25T08:16:52.625Z,686.25
2019-03-25T08:17:52.569Z,697.50
2019-03-25T08:18:52.555Z,798.75
2019-03-25T08:19:52.545Z,2435.62
2019-03-25T08:20:52.534Z,1890.00
2019-03-25T08:21:52.541Z,646.88
2019-03-25T08:22:52.512Z,759.38
2019-03-25T08:23:52.501Z,461.25
2019-03-25T08:24:52.492Z,348.75
2019-03-25T08:25:52.481Z,337.50
2019-03-25T08:26:52.469Z,253.12
2019-03-25T08:27:59.934Z,281.25
2019-03-25T08:28:53.455Z,736.88
2019-03-25T08:29:52.443Z,826.88
2019-03-25T08:30:52.426Z,573.75
2019-03-25T08:31:52.416Z,798.75
2019-03-25T08:32:52.407Z,2514.38
2019-03-25T08:33:52.406Z,736.88
2019-03-25T08:34:52.383Z,540.00
2019-03-25T08:35:52.372Z,466.88
2019-03-25T08:36:52.361Z,534.38
2019-03-25T08:37:52.355Z,2188.12
2019-03-25T08:38:52.340Z,798.75
2019-03-25T08:39:52.341Z,686.25
2019-03-25T08:40:52.347Z,483.75
2019-03-25T08:41:52.311Z,489.38
2019-03-25T08:42:52.296Z,596.25
2019-03-25T08:43:52.285Z,416.25
2019-03-25T08:44:52.273Z,489.38
2019-03-25T08:45:52.273Z,343.12
2019-03-25T08:46:52.258Z,264.38
2019-03-25T08:47:52.241Z,196.88
2019-03-25T08:48:52.229Z,146.25
2019-03-25T08:49:52.230Z,146.25
2019-03-25T08:50:52.212Z,129.38
2019-03-25T08:51:52.208Z,140.62
2019-03-25T08:52:52.187Z,140.62
2019-03-25T08:53:52.175Z,191.25
2019-03-25T08:54:52.165Z,258.75
2019-03-25T08:55:52.154Z,275.62
2019-03-25T08:56:52.144Z,360.00
2019-03-25T08:57:52.152Z,641.25
2019-03-25T08:58:52.120Z,337.50
2019-03-25T08:59:52.109Z,157.50
2019-03-25T09:00:52.098Z,123.75
2019-03-25T09:01:52.092Z,163.12
2019-03-25T09:02:52.076Z,241.88
2019-03-25T09:03:52.076Z,286.88
2019-03-25T09:04:52.055Z,247.50
2019-03-25T09:05:52.044Z,213.75
2019-03-25T09:06:52.033Z,163.12
2019-03-25T09:07:52.022Z,140.62
2019-03-25T09:08:52.011Z,146.25
2019-03-25T09:09:52.012Z,196.88
2019-03-25T09:10:51.991Z,247.50
2019-03-25T09:11:52.008Z,399.38
2019-03-25T09:12:51.968Z,860.62
2019-03-25T09:13:51.967Z,348.75
2019-03-25T09:14:51.949Z,1063.12
2019-03-25T09:15:51.961Z,849.38
2019-03-25T09:16:51.929Z,888.75
2019-03-25T09:17:51.917Z,466.88
2019-03-25T09:18:51.903Z,534.38
2019-03-25T09:19:51.905Z,590.62
2019-03-25T09:20:51.884Z,410.62
2019-03-25T09:21:51.899Z,348.75
2019-03-25T09:22:51.859Z,393.75
2019-03-25T09:23:51.866Z,298.12
2019-03-25T09:24:51.840Z,264.38
2019-03-25T09:25:51.844Z,309.38
2019-03-25T09:26:51.816Z,433.12
2019-03-25T09:27:51.847Z,646.88
2019-03-25T09:28:51.799Z,511.88
2019-03-25T09:29:51.787Z,343.12
2019-03-25T09:30:51.773Z,405.00
2019-03-25T09:31:51.768Z,686.25
2019-03-25T09:32:51.751Z,714.38
2019-03-25T09:33:51.750Z,731.25
2019-03-25T09:34:51.731Z,832.50
2019-03-25T09:35:51.765Z,703.12
2019-03-25T09:36:51.707Z,551.25
2019-03-25T09:37:52.818Z,573.75
2019-03-25T09:38:51.690Z,303.75
2019-03-25T09:39:51.686Z,281.25
2019-03-25T09:40:51.664Z,303.75
2019-03-25T09:41:51.652Z,286.88
2019-03-25T09:42:51.643Z,213.75
2019-03-25T09:43:51.631Z,174.38
2019-03-25T09:44:51.620Z,106.88
2019-03-25T09:45:51.620Z,73.12
2019-03-25T09:46:51.598Z,50.62
2019-03-25T09:47:51.594Z,45.00
2019-03-25T09:48:51.579Z,84.38
2019-03-25T09:49:51.570Z,112.50
2019-03-25T09:50:51.555Z,129.38
2019-03-25T09:51:52.915Z,140.62
2019-03-25T09:52:51.534Z,151.88
2019-03-25T09:53:51.525Z,146.25
2019-03-25T09:54:51.512Z,180.00
2019-03-25T09:55:51.503Z,331.88
2019-03-25T09:56:51.492Z,455.62
2019-03-25T09:57:51.498Z,455.62
2019-03-25T09:58:51.468Z,393.75
2019-03-25T09:59:51.457Z,450.00
2019-03-25T10:00:52.225Z,545.62
2019-03-25T10:01:51.437Z,455.62
2019-03-25T10:02:51.428Z,523.12
2019-03-25T10:03:51.433Z,528.75
2019-03-25T10:04:51.404Z,343.12
2019-03-25T10:05:51.397Z,438.75
2019-03-25T10:06:51.381Z,388.12
2019-03-25T10:07:51.371Z,371.25
2019-03-25T10:08:51.359Z,354.38
2019-03-25T10:09:51.397Z,348.75
2019-03-25T10:10:51.338Z,343.12
2019-03-25T10:11:51.328Z,337.50
2019-03-25T10:12:51.317Z,331.88
2019-03-25T10:13:51.337Z,326.25
2019-03-25T10:14:51.295Z,326.25
2019-03-25T10:15:51.297Z,326.25
2019-03-25T10:16:51.272Z,326.25
2019-03-25T10:17:51.269Z,371.25
2019-03-25T10:18:51.255Z,483.75
2019-03-25T10:19:51.241Z,534.38
2019-03-25T10:20:51.230Z,461.25
2019-03-25T10:21:51.229Z,528.75
2019-03-25T10:22:51.209Z,461.25
2019-03-25T10:23:51.206Z,534.38
2019-03-25T10:24:51.191Z,523.12
2019-03-25T10:25:51.175Z,517.50
2019-03-25T10:26:51.165Z,495.00
2019-03-25T10:27:51.165Z,523.12
2019-03-25T10:28:51.144Z,517.50
2019-03-25T10:29:51.138Z,427.50
2019-03-25T10:30:51.121Z,365.62
2019-03-25T10:31:51.111Z,450.00
2019-03-25T10:32:51.100Z,348.75
2019-03-25T10:33:51.102Z,416.25
2019-03-25T10:34:51.081Z,405.00
2019-03-25T10:35:51.073Z,461.25
2019-03-25T10:36:51.057Z,478.12
2019-03-25T10:37:51.048Z,416.25
2019-03-25T10:38:51.037Z,427.50
2019-03-25T10:39:51.048Z,461.25
2019-03-25T10:40:51.045Z,388.12
2019-03-25T10:41:51.005Z,326.25
2019-03-25T10:42:50.993Z,298.12
2019-03-25T10:43:50.981Z,298.12
2019-03-25T10:44:50.971Z,298.12
2019-03-25T10:45:50.977Z,292.50
2019-03-25T10:46:50.950Z,348.75
2019-03-25T10:47:50.959Z,320.62
2019-03-25T10:48:50.940Z,444.38
2019-03-25T10:49:50.919Z,405.00
2019-03-25T10:50:50.918Z,393.75
2019-03-25T10:51:50.912Z,421.88
2019-03-25T10:52:50.919Z,421.88
2019-03-25T10:53:50.871Z,382.50
2019-03-25T10:54:51.067Z,376.88
2019-03-25T10:55:50.849Z,433.12
2019-03-25T10:56:50.839Z,393.75
2019-03-25T10:57:50.838Z,320.62
2019-03-25T10:58:57.975Z,275.62
2019-03-25T10:59:51.804Z,247.50
2019-03-25T11:00:50.795Z,219.38
2019-03-25T11:01:50.783Z,185.62
2019-03-25T11:02:50.773Z,129.38
2019-03-25T11:03:50.774Z,123.75
2019-03-25T11:04:50.751Z,135.00
2019-03-25T11:05:50.740Z,140.62
2019-03-25T11:06:50.729Z,151.88
2019-03-25T11:07:50.720Z,163.12
2019-03-25T11:08:50.707Z,174.38
2019-03-25T11:09:50.710Z,185.62
2019-03-25T11:10:50.687Z,196.88
2019-03-25T11:11:50.677Z,208.12
2019-03-25T11:12:50.665Z,213.75
2019-03-25T11:13:50.655Z,219.38
2019-03-25T11:14:50.643Z,219.38
2019-03-25T11:15:50.647Z,219.38
2019-03-25T11:16:50.622Z,225.00
2019-03-25T11:17:50.615Z,230.62
2019-03-25T11:18:50.602Z,230.62
2019-03-25T11:19:50.589Z,225.00
2019-03-25T11:20:50.578Z,225.00
2019-03-25T11:21:50.583Z,225.00
2019-03-25T11:22:50.557Z,208.12
2019-03-25T11:23:50.549Z,196.88
2019-03-25T11:24:50.538Z,191.25
2019-03-25T11:25:50.528Z,180.00
2019-03-25T11:26:50.515Z,180.00
2019-03-25T11:27:54.478Z,174.38
2019-03-25T11:28:50.493Z,168.75
2019-03-25T11:29:50.511Z,174.38
2019-03-25T11:30:50.480Z,180.00
2019-03-25T11:31:50.461Z,185.62
2019-03-25T11:32:50.451Z,185.62
2019-03-25T11:33:50.450Z,180.00
2019-03-25T11:34:50.430Z,180.00
2019-03-25T11:35:50.419Z,180.00
2019-03-25T11:36:50.408Z,174.38
2019-03-25T11:37:50.398Z,174.38
2019-03-25T11:38:50.388Z,174.38
2019-03-25T11:39:50.386Z,174.38
2019-03-25T11:40:50.368Z,174.38
2019-03-25T11:41:50.355Z,168.75
2019-03-25T11:42:50.348Z,168.75
2019-03-25T11:43:50.344Z,168.75
2019-03-25T11:44:50.340Z,168.75
2019-03-25T11:45:50.338Z,168.75
2019-03-25T11:46:50.302Z,168.75
2019-03-25T11:47:50.291Z,168.75
2019-03-25T11:48:50.280Z,174.38
2019-03-25T11:49:50.273Z,174.38
2019-03-25T11:50:50.262Z,174.38
2019-03-25T11:51:50.259Z,174.38
2019-03-25T11:52:50.236Z,174.38
2019-03-25T11:53:50.230Z,174.38
2019-03-25T11:54:50.215Z,174.38
2019-03-25T11:55:50.203Z,174.38
2019-03-25T11:56:50.192Z,180.00
2019-03-25T11:57:50.199Z,185.62
2019-03-25T11:58:50.171Z,196.88
2019-03-25T11:59:50.160Z,208.12
2019-03-25T12:00:50.150Z,208.12
2019-03-25T12:01:50.139Z,213.75
2019-03-25T12:02:50.129Z,219.38
2019-03-25T12:03:50.134Z,213.75
2019-03-25T12:04:50.133Z,241.88
2019-03-25T12:05:50.097Z,286.88
2019-03-25T12:06:50.088Z,343.12
2019-03-25T12:07:50.074Z,376.88
2019-03-25T12:08:50.064Z,315.00
2019-03-25T12:09:50.067Z,360.00
2019-03-25T12:10:50.043Z,393.75
2019-03-25T12:11:50.032Z,421.88
2019-03-25T12:12:50.020Z,376.88
2019-03-25T12:13:50.009Z,376.88
2019-03-25T12:14:49.998Z,360.00
2019-03-25T12:15:49.999Z,365.62
2019-03-25T12:16:49.976Z,331.88
2019-03-25T12:17:49.965Z,343.12
2019-03-25T12:18:49.954Z,343.12
2019-03-25T12:19:49.944Z,354.38
2019-03-25T12:20:49.933Z,331.88
2019-03-25T12:21:49.933Z,326.25
2019-03-25T12:22:49.911Z,337.50
2019-03-25T12:23:49.900Z,343.12
2019-03-25T12:24:49.889Z,315.00
2019-03-25T12:25:49.879Z,320.62
2019-03-25T12:26:49.868Z,309.38
2019-03-25T12:27:49.871Z,292.50
2019-03-25T12:28:49.847Z,292.50
2019-03-25T12:29:49.835Z,264.38
2019-03-25T12:30:49.824Z,236.25
2019-03-25T12:31:49.814Z,196.88
2019-03-25T12:32:49.804Z,180.00
2019-03-25T12:33:49.811Z,168.75
2019-03-25T12:34:49.780Z,168.75
2019-03-25T12:35:49.770Z,180.00
2019-03-25T12:36:49.760Z,191.25
2019-03-25T12:37:49.749Z,253.12
2019-03-25T12:38:49.739Z,309.38
2019-03-25T12:39:49.739Z,354.38
2019-03-25T12:40:49.716Z,421.88
2019-03-25T12:41:49.704Z,427.50
2019-03-25T12:42:49.696Z,376.88
2019-03-25T12:43:49.684Z,309.38
2019-03-25T12:44:49.674Z,219.38
2019-03-25T12:45:49.678Z,157.50
2019-03-25T12:46:49.651Z,118.12
2019-03-25T12:47:49.639Z,95.62
2019-03-25T12:48:49.632Z,73.12
2019-03-25T12:49:49.618Z,50.62
2019-03-25T12:50:49.609Z,33.75